sensor_id;sensor_type;location;lat;lon;timestamp;pressure;altitude;pressure_sealevel;temperature;humidity
12973;BME280;6551;51.056;9.466;2023-04-07T00:00:29;97570.81;;;11.73;61.05
12973;BME280;6551;51.056;9.466;2023-04-07T00:02:56;97578.19;;;11.60;61.26
12973;BME280;6551;51.056;9.466;2023-04-07T00:05:23;97575.09;;;11.45;61.75
12973;BME280;6551;51.056;9.466;2023-04-07T00:07:50;97582.06;;;11.46;62.16
12973;BME280;6551;51.056;9.466;2023-04-07T00:10:18;97570.84;;;11.97;61.83
12973;BME280;6551;51.056;9.466;2023-04-07T00:12:45;97574.19;;;11.81;61.80
12973;BME280;6551;51.056;9.466;2023-04-07T00:15:12;97578.81;;;11.73;61.52
12973;BME280;6551;51.056;9.466;2023-04-07T00:17:38;97571.66;;;11.26;61.24
12973;BME280;6551;51.056;9.466;2023-04-07T00:20:04;97577.75;;;11.74;61.97
12973;BME280;6551;51.056;9.466;2023-04-07T00:22:31;97579.00;;;11.60;61.00
12973;BME280;6551;51.056;9.466;2023-04-07T00:24:57;97573.78;;;11.65;61.13
12973;BME280;6551;51.056;9.466;2023-04-07T00:27:23;97578.88;;;11.85;61.14
12973;BME280;6551;51.056;9.466;2023-04-07T00:29:49;97575.41;;;11.07;61.99
12973;BME280;6551;51.056;9.466;2023-04-07T00:32:15;97576.63;;;11.23;63.26
12973;BME280;6551;51.056;9.466;2023-04-07T00:34:42;97575.28;;;11.32;62.84
12973;BME280;6551;51.056;9.466;2023-04-07T00:37:09;97571.03;;;10.76;64.32
12973;BME280;6551;51.056;9.466;2023-04-07T00:39:35;97570.88;;;11.07;63.98
12973;BME280;6551;51.056;9.466;2023-04-07T00:42:03;97574.16;;;11.39;63.94
12973;BME280;6551;51.056;9.466;2023-04-07T00:44:33;97566.19;;;11.21;63.42
12973;BME280;6551;51.056;9.466;2023-04-07T00:47:00;97557.81;;;10.88;64.10
12973;BME280;6551;51.056;9.466;2023-04-07T00:49:26;97563.13;;;10.70;64.30
12973;BME280;6551;51.056;9.466;2023-04-07T00:51:55;97556.44;;;11.45;64.00
12973;BME280;6551;51.056;9.466;2023-04-07T00:54:23;97559.16;;;11.27;63.58
12973;BME280;6551;51.056;9.466;2023-04-07T00:56:50;97555.03;;;11.42;63.47
12973;BME280;6551;51.056;9.466;2023-04-07T00:59:18;97541.66;;;12.02;62.63
12973;BME280;6551;51.056;9.466;2023-04-07T01:02:15;97546.38;;;12.00;60.82
12973;BME280;6551;51.056;9.466;2023-04-07T01:05:15;97548.56;;;11.20;63.70
12973;BME280;6551;51.056;9.466;2023-04-07T01:11:44;97541.88;;;10.99;65.02
12973;BME280;6551;51.056;9.466;2023-04-07T01:14:13;97536.91;;;11.03;64.92
12973;BME280;6551;51.056;9.466;2023-04-07T01:16:48;97541.72;;;10.94;64.02
12973;BME280;6551;51.056;9.466;2023-04-07T01:22:08;97539.50;;;10.12;66.02
12973;BME280;6551;51.056;9.466;2023-04-07T01:27:35;97531.22;;;10.45;67.73
12973;BME280;6551;51.056;9.466;2023-04-07T01:30:04;97531.97;;;10.34;66.77
12973;BME280;6551;51.056;9.466;2023-04-07T01:32:36;97528.88;;;10.37;66.54
12973;BME280;6551;51.056;9.466;2023-04-07T01:35:12;97522.97;;;10.35;67.11
12973;BME280;6551;51.056;9.466;2023-04-07T01:37:38;97520.34;;;10.28;66.44
12973;BME280;6551;51.056;9.466;2023-04-07T01:40:09;97523.28;;;10.63;66.60
12973;BME280;6551;51.056;9.466;2023-04-07T01:42:37;97524.97;;;10.57;65.24
12973;BME280;6551;51.056;9.466;2023-04-07T01:45:05;97516.56;;;10.18;66.87
12973;BME280;6551;51.056;9.466;2023-04-07T01:47:34;97523.81;;;10.83;65.50
12973;BME280;6551;51.056;9.466;2023-04-07T01:50:03;97518.16;;;10.43;65.10
12973;BME280;6551;51.056;9.466;2023-04-07T01:52:32;97518.94;;;10.01;66.54
12973;BME280;6551;51.056;9.466;2023-04-07T01:55:00;97523.50;;;9.94;67.35
12973;BME280;6551;51.056;9.466;2023-04-07T01:57:26;97512.81;;;9.76;67.46
12973;BME280;6551;51.056;9.466;2023-04-07T01:59:52;97511.09;;;9.88;68.16
12973;BME280;6551;51.056;9.466;2023-04-07T02:02:18;97507.06;;;9.79;67.93
12973;BME280;6551;51.056;9.466;2023-04-07T02:05:04;97510.31;;;9.81;68.79
12973;BME280;6551;51.056;9.466;2023-04-07T02:07:45;97506.94;;;9.92;69.09
12973;BME280;6551;51.056;9.466;2023-04-07T02:10:21;97504.69;;;9.95;68.21
12973;BME280;6551;51.056;9.466;2023-04-07T02:12:49;97514.81;;;9.80;68.72
12973;BME280;6551;51.056;9.466;2023-04-07T02:15:18;97505.19;;;9.30;69.74
12973;BME280;6551;51.056;9.466;2023-04-07T02:17:50;97505.22;;;9.23;71.59
12973;BME280;6551;51.056;9.466;2023-04-07T02:20:19;97506.03;;;9.24;70.68
12973;BME280;6551;51.056;9.466;2023-04-07T02:22:47;97494.97;;;8.96;71.37
12973;BME280;6551;51.056;9.466;2023-04-07T02:25:31;97492.22;;;9.71;72.02
12973;BME280;6551;51.056;9.466;2023-04-07T02:27:58;97495.31;;;9.06;72.24
12973;BME280;6551;51.056;9.466;2023-04-07T02:30:27;97497.44;;;9.28;71.92
12973;BME280;6551;51.056;9.466;2023-04-07T02:32:53;97503.34;;;8.99;71.36
12973;BME280;6551;51.056;9.466;2023-04-07T02:35:19;97504.22;;;9.24;71.41
12973;BME280;6551;51.056;9.466;2023-04-07T02:37:47;97500.69;;;9.30;71.27
12973;BME280;6551;51.056;9.466;2023-04-07T02:40:13;97501.78;;;9.16;72.03
12973;BME280;6551;51.056;9.466;2023-04-07T02:42:39;97494.84;;;9.15;72.04
12973;BME280;6551;51.056;9.466;2023-04-07T02:45:08;97503.09;;;9.07;72.55
12973;BME280;6551;51.056;9.466;2023-04-07T02:47:35;97491.84;;;9.36;72.45
12973;BME280;6551;51.056;9.466;2023-04-07T02:50:04;97495.06;;;9.45;71.17
12973;BME280;6551;51.056;9.466;2023-04-07T02:52:30;97496.63;;;9.53;72.07
12973;BME280;6551;51.056;9.466;2023-04-07T02:54:56;97491.81;;;10.17;70.51
12973;BME280;6551;51.056;9.466;2023-04-07T02:57:21;97491.16;;;10.40;68.76
12973;BME280;6551;51.056;9.466;2023-04-07T02:59:48;97494.13;;;10.68;68.49
12973;BME280;6551;51.056;9.466;2023-04-07T03:02:14;97492.94;;;10.46;67.77
12973;BME280;6551;51.056;9.466;2023-04-07T03:04:41;97490.25;;;10.64;66.88
12973;BME280;6551;51.056;9.466;2023-04-07T03:07:07;97490.22;;;11.00;66.40
12973;BME280;6551;51.056;9.466;2023-04-07T03:09:33;97493.09;;;11.29;65.07
12973;BME280;6551;51.056;9.466;2023-04-07T03:11:59;97490.78;;;10.91;65.08
12973;BME280;6551;51.056;9.466;2023-04-07T03:14:28;97490.22;;;11.00;65.89
12973;BME280;6551;51.056;9.466;2023-04-07T03:16:54;97485.34;;;11.27;64.67
12973;BME280;6551;51.056;9.466;2023-04-07T03:19:20;97487.47;;;11.48;64.90
12973;BME280;6551;51.056;9.466;2023-04-07T03:21:48;97473.25;;;11.66;63.19
12973;BME280;6551;51.056;9.466;2023-04-07T03:24:16;97475.38;;;11.76;63.07
12973;BME280;6551;51.056;9.466;2023-04-07T03:26:44;97476.19;;;11.76;63.54
12973;BME280;6551;51.056;9.466;2023-04-07T03:29:10;97463.97;;;11.68;63.76
12973;BME280;6551;51.056;9.466;2023-04-07T03:31:35;97464.59;;;11.82;63.02
12973;BME280;6551;51.056;9.466;2023-04-07T03:34:04;97463.91;;;11.98;61.71
12973;BME280;6551;51.056;9.466;2023-04-07T03:36:30;97464.72;;;11.99;62.47
12973;BME280;6551;51.056;9.466;2023-04-07T03:39:00;97461.91;;;12.05;61.45
12973;BME280;6551;51.056;9.466;2023-04-07T03:41:25;97465.66;;;12.04;62.18
12973;BME280;6551;51.056;9.466;2023-04-07T03:43:51;97453.59;;;11.90;61.67
12973;BME280;6551;51.056;9.466;2023-04-07T03:46:20;97459.03;;;11.84;62.88
12973;BME280;6551;51.056;9.466;2023-04-07T03:48:47;97459.19;;;11.47;63.17
12973;BME280;6551;51.056;9.466;2023-04-07T03:51:14;97453.03;;;10.94;64.26
12973;BME280;6551;51.056;9.466;2023-04-07T03:53:40;97453.53;;;10.54;65.97
12973;BME280;6551;51.056;9.466;2023-04-07T03:56:06;97456.50;;;10.28;67.25
12973;BME280;6551;51.056;9.466;2023-04-07T03:58:31;97455.41;;;9.93;69.01
12973;BME280;6551;51.056;9.466;2023-04-07T04:00:58;97459.22;;;9.79;69.84
12973;BME280;6551;51.056;9.466;2023-04-07T04:03:24;97465.44;;;9.91;70.06
12973;BME280;6551;51.056;9.466;2023-04-07T04:05:51;97466.03;;;9.93;70.37
12973;BME280;6551;51.056;9.466;2023-04-07T04:08:19;97474.19;;;9.73;70.37
12973;BME280;6551;51.056;9.466;2023-04-07T04:10:45;97470.06;;;9.77;71.37
12973;BME280;6551;51.056;9.466;2023-04-07T04:13:12;97460.75;;;9.68;71.03
12973;BME280;6551;51.056;9.466;2023-04-07T04:15:38;97469.78;;;9.36;71.68
12973;BME280;6551;51.056;9.466;2023-04-07T04:18:04;97472.94;;;9.51;73.19
12973;BME280;6551;51.056;9.466;2023-04-07T04:20:30;97471.13;;;9.20;73.00
12973;BME280;6551;51.056;9.466;2023-04-07T04:22:57;97468.00;;;9.30;72.84
12973;BME280;6551;51.056;9.466;2023-04-07T04:25:24;97472.56;;;9.48;73.58
12973;BME280;6551;51.056;9.466;2023-04-07T04:27:51;97468.31;;;9.40;74.38
12973;BME280;6551;51.056;9.466;2023-04-07T04:30:18;97470.16;;;9.89;74.34
12973;BME280;6551;51.056;9.466;2023-04-07T04:32:43;97470.53;;;10.17;71.92
12973;BME280;6551;51.056;9.466;2023-04-07T04:35:09;97470.75;;;10.34;69.15
12973;BME280;6551;51.056;9.466;2023-04-07T04:37:36;97472.69;;;10.45;68.66
12973;BME280;6551;51.056;9.466;2023-04-07T04:40:02;97478.66;;;10.58;68.83
12973;BME280;6551;51.056;9.466;2023-04-07T04:42:29;97475.38;;;10.75;68.42
12973;BME280;6551;51.056;9.466;2023-04-07T04:45:00;97477.97;;;11.11;67.05
12973;BME280;6551;51.056;9.466;2023-04-07T04:47:26;97470.53;;;10.72;67.71
12973;BME280;6551;51.056;9.466;2023-04-07T04:49:51;97475.13;;;11.24;65.40
12973;BME280;6551;51.056;9.466;2023-04-07T04:52:19;97474.03;;;11.43;66.08
12973;BME280;6551;51.056;9.466;2023-04-07T04:54:44;97470.13;;;11.57;65.60
12973;BME280;6551;51.056;9.466;2023-04-07T04:57:10;97469.41;;;11.62;64.47
12973;BME280;6551;51.056;9.466;2023-04-07T04:59:35;97464.16;;;11.32;64.75
12973;BME280;6551;51.056;9.466;2023-04-07T05:02:01;97471.63;;;11.65;63.87
12973;BME280;6551;51.056;9.466;2023-04-07T05:04:27;97472.50;;;11.77;63.03
12973;BME280;6551;51.056;9.466;2023-04-07T05:06:52;97470.63;;;12.01;63.11
12973;BME280;6551;51.056;9.466;2023-04-07T05:09:19;97472.69;;;12.22;62.89
12973;BME280;6551;51.056;9.466;2023-04-07T05:11:48;97477.69;;;12.30;62.17
12973;BME280;6551;51.056;9.466;2023-04-07T05:14:14;97486.84;;;12.57;60.75
12973;BME280;6551;51.056;9.466;2023-04-07T05:16:39;97480.03;;;12.26;61.15
12973;BME280;6551;51.056;9.466;2023-04-07T05:19:05;97476.53;;;12.49;61.54
12973;BME280;6551;51.056;9.466;2023-04-07T05:21:31;97478.84;;;12.46;60.52
12973;BME280;6551;51.056;9.466;2023-04-07T05:23:58;97489.47;;;12.69;60.55
12973;BME280;6551;51.056;9.466;2023-04-07T05:26:24;97494.97;;;12.51;61.02
12973;BME280;6551;51.056;9.466;2023-04-07T05:28:50;97481.06;;;12.25;61.27
12973;BME280;6551;51.056;9.466;2023-04-07T05:31:16;97475.38;;;11.87;62.71
12973;BME280;6551;51.056;9.466;2023-04-07T05:33:42;97483.28;;;12.05;62.18
12973;BME280;6551;51.056;9.466;2023-04-07T05:36:09;97483.75;;;12.25;62.33
12973;BME280;6551;51.056;9.466;2023-04-07T05:38:34;97484.81;;;12.13;61.33
12973;BME280;6551;51.056;9.466;2023-04-07T05:41:00;97484.19;;;12.11;60.81
12973;BME280;6551;51.056;9.466;2023-04-07T05:43:27;97477.09;;;12.40;60.77
12973;BME280;6551;51.056;9.466;2023-04-07T05:45:53;97479.59;;;12.69;60.31
12973;BME280;6551;51.056;9.466;2023-04-07T05:48:19;97480.94;;;12.83;60.57
12973;BME280;6551;51.056;9.466;2023-04-07T05:50:45;97482.25;;;12.81;59.77
12973;BME280;6551;51.056;9.466;2023-04-07T05:53:14;97482.03;;;12.71;59.94
12973;BME280;6551;51.056;9.466;2023-04-07T05:55:44;97479.53;;;12.41;60.47
12973;BME280;6551;51.056;9.466;2023-04-07T05:58:10;97481.06;;;12.02;61.50
12973;BME280;6551;51.056;9.466;2023-04-07T06:00:37;97474.13;;;11.90;61.71
12973;BME280;6551;51.056;9.466;2023-04-07T06:03:04;97476.19;;;11.76;63.37
12973;BME280;6551;51.056;9.466;2023-04-07T06:05:30;97479.00;;;11.93;63.03
12973;BME280;6551;51.056;9.466;2023-04-07T06:07:56;97473.53;;;12.11;62.31
12973;BME280;6551;51.056;9.466;2023-04-07T06:10:21;97469.81;;;11.77;62.99
12973;BME280;6551;51.056;9.466;2023-04-07T06:12:48;97482.47;;;12.05;62.54
12973;BME280;6551;51.056;9.466;2023-04-07T06:15:14;97481.88;;;11.91;61.99
12973;BME280;6551;51.056;9.466;2023-04-07T06:17:42;97482.91;;;12.13;62.30
12973;BME280;6551;51.056;9.466;2023-04-07T06:20:10;97485.50;;;11.14;64.74
12973;BME280;6551;51.056;9.466;2023-04-07T06:22:37;97491.41;;;11.46;64.67
12973;BME280;6551;51.056;9.466;2023-04-07T06:25:03;97492.97;;;11.24;65.06
12973;BME280;6551;51.056;9.466;2023-04-07T06:27:30;97499.66;;;11.14;65.90
12973;BME280;6551;51.056;9.466;2023-04-07T06:29:57;97503.03;;;10.92;66.10
12973;BME280;6551;51.056;9.466;2023-04-07T06:32:23;97506.38;;;10.69;66.40
12973;BME280;6551;51.056;9.466;2023-04-07T06:34:49;97506.97;;;10.53;67.53
12973;BME280;6551;51.056;9.466;2023-04-07T06:37:17;97502.31;;;10.67;68.34
12973;BME280;6551;51.056;9.466;2023-04-07T06:39:45;97509.28;;;10.49;67.57
12973;BME280;6551;51.056;9.466;2023-04-07T06:42:12;97514.53;;;10.38;68.24
12973;BME280;6551;51.056;9.466;2023-04-07T06:44:38;97512.00;;;10.25;68.32
12973;BME280;6551;51.056;9.466;2023-04-07T06:47:03;97516.34;;;10.19;68.88
12973;BME280;6551;51.056;9.466;2023-04-07T06:49:30;97512.50;;;10.15;69.55
12973;BME280;6551;51.056;9.466;2023-04-07T06:51:56;97518.94;;;10.01;69.98
12973;BME280;6551;51.056;9.466;2023-04-07T06:54:22;97514.13;;;9.91;70.10
12973;BME280;6551;51.056;9.466;2023-04-07T06:56:48;97517.66;;;9.85;70.52
12973;BME280;6551;51.056;9.466;2023-04-07T06:59:15;97515.09;;;9.97;70.62
12973;BME280;6551;51.056;9.466;2023-04-07T07:01:42;97515.84;;;9.55;71.70
12973;BME280;6551;51.056;9.466;2023-04-07T07:04:10;97518.25;;;9.87;72.27
12973;BME280;6551;51.056;9.466;2023-04-07T07:06:36;97521.66;;;10.19;72.14
12973;BME280;6551;51.056;9.466;2023-04-07T07:09:02;97520.97;;;10.48;69.65
12973;BME280;6551;51.056;9.466;2023-04-07T07:11:28;97528.72;;;10.50;68.67
12973;BME280;6551;51.056;9.466;2023-04-07T07:13:54;97527.00;;;10.55;69.45
12973;BME280;6551;51.056;9.466;2023-04-07T07:16:20;97529.81;;;10.24;68.91
12973;BME280;6551;51.056;9.466;2023-04-07T07:18:49;97532.53;;;10.18;68.72
12973;BME280;6551;51.056;9.466;2023-04-07T07:21:17;97532.25;;;10.01;69.73
12973;BME280;6551;51.056;9.466;2023-04-07T07:23:44;97535.88;;;9.82;70.64
12973;BME280;6551;51.056;9.466;2023-04-07T07:26:10;97536.38;;;9.72;70.80
12973;BME280;6551;51.056;9.466;2023-04-07T07:28:36;97536.84;;;9.63;71.38
12973;BME280;6551;51.056;9.466;2023-04-07T07:31:11;97536.47;;;9.59;72.34
12973;BME280;6551;51.056;9.466;2023-04-07T07:33:39;97544.03;;;9.56;71.37
12973;BME280;6551;51.056;9.466;2023-04-07T07:36:07;97549.56;;;9.23;71.71
12973;BME280;6551;51.056;9.466;2023-04-07T07:38:33;97559.78;;;9.19;72.71
12973;BME280;6551;51.056;9.466;2023-04-07T07:40:59;97550.81;;;9.20;72.37
12973;BME280;6551;51.056;9.466;2023-04-07T07:43:24;97550.13;;;9.31;72.82
12973;BME280;6551;51.056;9.466;2023-04-07T07:45:50;97552.44;;;9.21;72.43
12973;BME280;6551;51.056;9.466;2023-04-07T07:48:17;97555.59;;;9.43;72.42
12973;BME280;6551;51.056;9.466;2023-04-07T07:50:43;97550.06;;;9.45;72.70
12973;BME280;6551;51.056;9.466;2023-04-07T07:53:10;97566.66;;;9.40;72.06
12973;BME280;6551;51.056;9.466;2023-04-07T07:55:35;97562.44;;;9.26;72.40
12973;BME280;6551;51.056;9.466;2023-04-07T07:58:01;97561.59;;;9.25;72.65
12973;BME280;6551;51.056;9.466;2023-04-07T08:00:27;97579.47;;;9.12;72.81
12973;BME280;6551;51.056;9.466;2023-04-07T08:02:53;97562.44;;;9.26;74.09
12973;BME280;6551;51.056;9.466;2023-04-07T08:05:20;97565.50;;;9.29;73.44
12973;BME280;6551;51.056;9.466;2023-04-07T08:07:48;97572.94;;;9.46;72.84
12973;BME280;6551;51.056;9.466;2023-04-07T08:10:15;97570.06;;;9.47;73.06
12973;BME280;6551;51.056;9.466;2023-04-07T08:12:40;97570.69;;;9.49;74.22
12973;BME280;6551;51.056;9.466;2023-04-07T08:15:06;97571.13;;;9.46;72.58
12973;BME280;6551;51.056;9.466;2023-04-07T08:17:36;97583.78;;;9.75;73.10
12973;BME280;6551;51.056;9.466;2023-04-07T08:20:04;97580.16;;;9.70;72.63
12973;BME280;6551;51.056;9.466;2023-04-07T08:22:33;97585.72;;;9.62;72.58
12973;BME280;6551;51.056;9.466;2023-04-07T08:24:59;97579.69;;;9.48;71.99
12973;BME280;6551;51.056;9.466;2023-04-07T08:27:25;97585.00;;;9.79;73.78
12973;BME280;6551;51.056;9.466;2023-04-07T08:30:03;97590.88;;;9.88;71.34
12973;BME280;6551;51.056;9.466;2023-04-07T08:32:44;97585.56;;;9.57;72.52
12973;BME280;6551;51.056;9.466;2023-04-07T08:35:11;97590.94;;;9.75;72.91
12973;BME280;6551;51.056;9.466;2023-04-07T08:37:39;97588.09;;;9.76;71.52
12973;BME280;6551;51.056;9.466;2023-04-07T08:40:06;97584.19;;;9.79;72.04
12973;BME280;6551;51.056;9.466;2023-04-07T08:42:34;97599.00;;;9.62;71.35
12973;BME280;6551;51.056;9.466;2023-04-07T08:45:07;97589.09;;;9.44;71.68
12973;BME280;6551;51.056;9.466;2023-04-07T08:47:36;97587.94;;;9.71;72.50
12973;BME280;6551;51.056;9.466;2023-04-07T08:50:07;97584.66;;;9.69;72.20
12973;BME280;6551;51.056;9.466;2023-04-07T08:52:39;97597.28;;;9.43;72.67
12973;BME280;6551;51.056;9.466;2023-04-07T08:55:07;97591.63;;;9.64;72.81
12973;BME280;6551;51.056;9.466;2023-04-07T08:57:35;97592.94;;;9.55;72.02
12973;BME280;6551;51.056;9.466;2023-04-07T09:00:03;97594.72;;;9.92;72.81
12973;BME280;6551;51.056;9.466;2023-04-07T09:02:37;97592.88;;;9.92;71.67
12973;BME280;6551;51.056;9.466;2023-04-07T09:05:08;97595.00;;;9.77;72.39
12973;BME280;6551;51.056;9.466;2023-04-07T09:07:37;97603.09;;;9.95;72.32
12973;BME280;6551;51.056;9.466;2023-04-07T09:10:05;97594.78;;;9.85;72.25
12973;BME280;6551;51.056;9.466;2023-04-07T09:12:32;97598.47;;;9.84;71.26
12973;BME280;6551;51.056;9.466;2023-04-07T09:14:58;97605.50;;;9.97;70.84
12973;BME280;6551;51.056;9.466;2023-04-07T09:17:26;97603.25;;;9.69;71.43
12973;BME280;6551;51.056;9.466;2023-04-07T09:19:56;97609.97;;;9.72;71.72
12973;BME280;6551;51.056;9.466;2023-04-07T09:22:41;97608.88;;;9.86;72.94
12973;BME280;6551;51.056;9.466;2023-04-07T09:25:22;97612.94;;;10.20;71.85
12973;BME280;6551;51.056;9.466;2023-04-07T09:27:57;97609.09;;;10.16;70.75
12973;BME280;6551;51.056;9.466;2023-04-07T09:30:26;97615.16;;;10.23;71.91
12973;BME280;6551;51.056;9.466;2023-04-07T09:32:52;97615.94;;;9.98;71.72
12973;BME280;6551;51.056;9.466;2023-04-07T09:35:19;97615.22;;;10.16;72.38
12973;BME280;6551;51.056;9.466;2023-04-07T09:38:07;97614.09;;;10.73;70.24
12973;BME280;6551;51.056;9.466;2023-04-07T09:40:34;97610.59;;;10.73;70.44
12973;BME280;6551;51.056;9.466;2023-04-07T09:43:04;97617.00;;;10.47;70.51
12973;BME280;6551;51.056;9.466;2023-04-07T09:45:32;97607.53;;;10.33;70.80
12973;BME280;6551;51.056;9.466;2023-04-07T09:47:59;97617.50;;;10.37;70.84
12973;BME280;6551;51.056;9.466;2023-04-07T09:50:40;97604.34;;;10.42;70.59
12973;BME280;6551;51.056;9.466;2023-04-07T09:53:06;97614.59;;;10.21;70.31
12973;BME280;6551;51.056;9.466;2023-04-07T09:55:32;97619.47;;;10.24;70.19
12973;BME280;6551;51.056;9.466;2023-04-07T09:58:00;97617.28;;;10.39;70.73
12973;BME280;6551;51.056;9.466;2023-04-07T10:00:26;97611.94;;;10.39;70.71
12973;BME280;6551;51.056;9.466;2023-04-07T10:02:52;97614.16;;;10.24;70.83
12973;BME280;6551;51.056;9.466;2023-04-07T10:05:20;97604.38;;;10.11;71.49
12973;BME280;6551;51.056;9.466;2023-04-07T10:07:46;97614.03;;;10.37;71.30
12973;BME280;6551;51.056;9.466;2023-04-07T10:10:14;97600.78;;;10.55;71.37
12973;BME280;6551;51.056;9.466;2023-04-07T10:12:43;97607.88;;;10.79;71.06
12973;BME280;6551;51.056;9.466;2023-04-07T10:15:12;97606.44;;;10.58;70.67
12973;BME280;6551;51.056;9.466;2023-04-07T10:17:45;97607.34;;;10.89;69.72
12973;BME280;6551;51.056;9.466;2023-04-07T10:20:18;97613.59;;;11.01;70.41
12973;BME280;6551;51.056;9.466;2023-04-07T10:22:50;97615.19;;;11.38;69.30
12973;BME280;6551;51.056;9.466;2023-04-07T10:25:21;97605.78;;;11.65;68.43
12973;BME280;6551;51.056;9.466;2023-04-07T10:27:57;97609.22;;;12.25;67.33
12973;BME280;6551;51.056;9.466;2023-04-07T10:30:27;97603.19;;;12.42;66.42
12973;BME280;6551;51.056;9.466;2023-04-07T10:32:56;97601.56;;;12.29;65.45
12973;BME280;6551;51.056;9.466;2023-04-07T10:35:22;97600.03;;;12.45;64.87
12973;BME280;6551;51.056;9.466;2023-04-07T10:40:35;97601.78;;;12.74;66.02
12973;BME280;6551;51.056;9.466;2023-04-07T10:43:02;97604.81;;;12.54;64.13
12973;BME280;6551;51.056;9.466;2023-04-07T10:48:26;97601.44;;;12.70;64.52
12973;BME280;6551;51.056;9.466;2023-04-07T10:53:34;97605.03;;;12.53;63.66
12973;BME280;6551;51.056;9.466;2023-04-07T10:56:00;97612.34;;;12.69;64.17
12973;BME280;6551;51.056;9.466;2023-04-07T10:58:33;97609.56;;;12.64;63.47
12973;BME280;6551;51.056;9.466;2023-04-07T11:03:26;97598.47;;;13.30;61.87
12973;BME280;6551;51.056;9.466;2023-04-07T11:06:05;97604.59;;;13.30;61.20
12973;BME280;6551;51.056;9.466;2023-04-07T11:08:41;97607.41;;;13.35;62.24
12973;BME280;6551;51.056;9.466;2023-04-07T11:11:10;97598.84;;;13.50;61.06
12973;BME280;6551;51.056;9.466;2023-04-07T11:13:50;97597.75;;;13.91;60.48
12973;BME280;6551;51.056;9.466;2023-04-07T11:16:20;97602.44;;;14.00;60.67
12973;BME280;6551;51.056;9.466;2023-04-07T11:18:59;97601.91;;;13.70;60.32
12973;BME280;6551;51.056;9.466;2023-04-07T11:21:25;97596.25;;;13.55;59.45
12973;BME280;6551;51.056;9.466;2023-04-07T11:23:50;97599.88;;;13.77;58.90
12973;BME280;6551;51.056;9.466;2023-04-07T11:26:16;97599.53;;;14.02;57.99
12973;BME280;6551;51.056;9.466;2023-04-07T11:28:50;97597.44;;;14.71;59.38
12973;BME280;6551;51.056;9.466;2023-04-07T11:31:29;97593.09;;;15.08;56.21
12973;BME280;6551;51.056;9.466;2023-04-07T11:33:58;97595.91;;;14.58;56.58
12973;BME280;6551;51.056;9.466;2023-04-07T11:36:33;97602.84;;;15.36;57.18
12973;BME280;6551;51.056;9.466;2023-04-07T11:39:03;97599.84;;;15.10;54.00
12973;BME280;6551;51.056;9.466;2023-04-07T11:41:31;97600.16;;;15.36;54.71
12973;BME280;6551;51.056;9.466;2023-04-07T11:44:06;97601.59;;;15.92;53.37
12973;BME280;6551;51.056;9.466;2023-04-07T11:46:35;97597.66;;;15.99;53.00
12973;BME280;6551;51.056;9.466;2023-04-07T11:49:12;97592.50;;;15.93;52.84
12973;BME280;6551;51.056;9.466;2023-04-07T11:51:42;97599.25;;;15.47;53.05
12973;BME280;6551;51.056;9.466;2023-04-07T11:54:08;97609.13;;;15.03;53.93
12973;BME280;6551;51.056;9.466;2023-04-07T11:56:46;97611.19;;;14.96;54.15
12973;BME280;6551;51.056;9.466;2023-04-07T11:59:25;97601.06;;;14.81;54.65
12973;BME280;6551;51.056;9.466;2023-04-07T12:01:52;97595.81;;;14.70;55.21
12973;BME280;6551;51.056;9.466;2023-04-07T12:04:19;97596.13;;;14.73;54.21
12973;BME280;6551;51.056;9.466;2023-04-07T12:06:47;97591.00;;;15.10;53.07
12973;BME280;6551;51.056;9.466;2023-04-07T12:09:33;97591.44;;;15.02;55.47
12973;BME280;6551;51.056;9.466;2023-04-07T12:12:05;97591.63;;;15.17;55.57
12973;BME280;6551;51.056;9.466;2023-04-07T12:14:34;97588.75;;;15.02;54.24
12973;BME280;6551;51.056;9.466;2023-04-07T12:17:02;97589.63;;;15.29;53.48
12973;BME280;6551;51.056;9.466;2023-04-07T12:19:30;97588.69;;;15.40;52.92
12973;BME280;6551;51.056;9.466;2023-04-07T12:22:03;97583.06;;;15.63;53.20
12973;BME280;6551;51.056;9.466;2023-04-07T12:24:30;97589.50;;;15.19;53.96
12973;BME280;6551;51.056;9.466;2023-04-07T12:26:56;97590.06;;;15.43;54.07
12973;BME280;6551;51.056;9.466;2023-04-07T12:29:23;97580.22;;;16.02;53.29
12973;BME280;6551;51.056;9.466;2023-04-07T12:31:50;97585.00;;;16.63;52.50
12973;BME280;6551;51.056;9.466;2023-04-07T12:34:19;97574.53;;;16.62;50.68
12973;BME280;6551;51.056;9.466;2023-04-07T12:36:46;97576.03;;;16.53;50.05
12973;BME280;6551;51.056;9.466;2023-04-07T12:39:14;97567.44;;;16.51;49.20
12973;BME280;6551;51.056;9.466;2023-04-07T12:41:40;97577.22;;;16.62;49.44
12973;BME280;6551;51.056;9.466;2023-04-07T12:44:06;97586.31;;;16.24;49.51
12973;BME280;6551;51.056;9.466;2023-04-07T12:46:34;97583.88;;;15.91;50.30
12973;BME280;6551;51.056;9.466;2023-04-07T12:49:00;97586.97;;;16.04;49.74
12973;BME280;6551;51.056;9.466;2023-04-07T12:51:25;97587.25;;;16.08;51.72
12973;BME280;6551;51.056;9.466;2023-04-07T12:53:53;97585.81;;;16.59;51.24
12973;BME280;6551;51.056;9.466;2023-04-07T12:56:20;97579.75;;;16.83;52.38
12973;BME280;6551;51.056;9.466;2023-04-07T12:58:50;97577.84;;;17.31;53.41
12973;BME280;6551;51.056;9.466;2023-04-07T13:01:15;97578.66;;;17.31;51.97
12973;BME280;6551;51.056;9.466;2023-04-07T13:03:42;97577.50;;;17.84;51.71
12973;BME280;6551;51.056;9.466;2023-04-07T13:06:09;97568.59;;;17.89;50.17
12973;BME280;6551;51.056;9.466;2023-04-07T13:08:37;97572.09;;;17.79;51.48
12973;BME280;6551;51.056;9.466;2023-04-07T13:11:04;97581.16;;;17.53;50.96
12973;BME280;6551;51.056;9.466;2023-04-07T13:13:31;97573.31;;;17.41;51.13
12973;BME280;6551;51.056;9.466;2023-04-07T13:15:57;97575.94;;;17.26;51.21
12973;BME280;6551;51.056;9.466;2023-04-07T13:18:22;97578.97;;;17.40;50.34
12973;BME280;6551;51.056;9.466;2023-04-07T13:20:49;97580.13;;;17.54;50.07
12973;BME280;6551;51.056;9.466;2023-04-07T13:23:16;97576.56;;;17.48;49.99
12973;BME280;6551;51.056;9.466;2023-04-07T13:25:42;97586.22;;;17.44;49.64
12973;BME280;6551;51.056;9.466;2023-04-07T13:28:09;97596.78;;;17.51;50.00
12973;BME280;6551;51.056;9.466;2023-04-07T13:30:35;97596.44;;;17.32;50.04
12973;BME280;6551;51.056;9.466;2023-04-07T13:33:00;97598.00;;;17.18;51.07
12973;BME280;6551;51.056;9.466;2023-04-07T13:35:27;97600.09;;;17.11;50.78
12973;BME280;6551;51.056;9.466;2023-04-07T13:37:55;97600.28;;;16.94;50.88
12973;BME280;6551;51.056;9.466;2023-04-07T13:40:21;97602.63;;;16.81;51.61